Time;durP1;ratioP1;P1;durP2;ratioP2;P2;SDS_P1;SDS_P2;PMS_P1;PMS_P2;Temp;Humidity;BMP_temperature;BMP_pressure;BME280_temperature;BME280_humidity;BME280_pressure;Samples;Min_cycle;Max_cycle;Signal;HPM_P1;HPM_P2
2022/01/23 00:00:31;;;;;;;20.67;9.47;;;5.80;99.90;;;;;;6248117;22;20531;-81
2022/01/23 00:03:02;;;;;;;17.02;9.32;;;5.80;99.90;;;;;;6244370;22;20106;-81
2022/01/23 00:05:34;;;;;;;15.63;9.00;;;5.80;99.90;;;;;;6192068;22;20337;-82
2022/01/23 00:08:02;;;;;;;17.15;9.75;;;5.80;99.90;;;;;;6265771;22;20443;-81
2022/01/23 00:10:31;;;;;;;13.00;8.17;;;5.80;99.90;;;;;;6267044;22;20053;-82
2022/01/23 00:13:09;;;;;;;12.48;8.48;;;5.80;99.90;;;;;;6267138;22;20487;-81
2022/01/23 00:18:20;;;;;;;14.68;7.70;;;5.80;99.90;;;;;;6266292;22;20532;-82
2022/01/23 00:20:47;;;;;;;15.33;8.70;;;5.80;99.90;;;;;;6241192;22;20074;-81
2022/01/23 00:23:27;;;;;;;16.37;9.27;;;5.80;99.90;;;;;;6216161;22;20086;-81
2022/01/23 00:31:27;;;;;;;18.70;9.33;;;5.70;99.90;;;;;;6267209;22;20020;-82
2022/01/23 00:33:56;;;;;;;19.15;8.95;;;5.70;99.90;;;;;;6242204;22;20019;-81
2022/01/23 00:36:27;;;;;;;19.03;10.23;;;5.80;99.90;;;;;;6242297;22;20277;-81
2022/01/23 00:38:59;;;;;;;15.10;9.30;;;5.70;99.90;;;;;;6242634;22;20051;-81
2022/01/23 00:41:25;;;;;;;16.05;9.82;;;5.70;99.90;;;;;;6217436;22;20090;-81
2022/01/23 00:43:53;;;;;;;20.95;10.32;;;5.80;99.90;;;;;;6215146;22;20018;-81
2022/01/23 00:51:40;;;;;;;18.97;9.53;;;5.80;99.90;;;;;;6244091;22;20325;-81
2022/01/23 00:54:09;;;;;;;18.43;10.07;;;5.70;99.90;;;;;;6267898;22;20011;-82
2022/01/23 00:56:36;;;;;;;20.42;9.98;;;5.70;99.90;;;;;;6242515;22;20042;-82
2022/01/23 00:59:02;;;;;;;18.35;10.10;;;5.80;99.90;;;;;;6242219;22;20020;-81
2022/01/23 01:01:28;;;;;;;19.98;10.93;;;5.80;99.90;;;;;;6242665;22;20012;-81
2022/01/23 01:03:54;;;;;;;18.97;10.40;;;5.80;99.90;;;;;;6216806;22;20046;-81
2022/01/23 01:06:20;;;;;;;17.47;10.50;;;5.80;99.90;;;;;;6242657;22;20024;-81
2022/01/23 01:08:49;;;;;;;17.30;10.98;;;5.80;99.90;;;;;;6241216;22;20022;-81
2022/01/23 01:12:02;;;;;;;19.33;10.67;;;5.80;99.90;;;;;;6243254;22;20023;-81
2022/01/23 01:30:41;;;;;;;22.95;11.57;;;5.80;99.90;;;;;;6266874;22;20023;-81
2022/01/23 01:35:56;;;;;;;22.33;10.98;;;5.80;99.90;;;;;;6266162;22;20030;-82
2022/01/23 01:38:22;;;;;;;22.40;11.27;;;5.70;99.90;;;;;;6216886;22;20046;-82
2022/01/23 01:40:48;;;;;;;20.95;10.93;;;5.70;99.90;;;;;;6267139;22;20015;-82
2022/01/23 01:43:13;;;;;;;20.05;11.02;;;5.70;99.90;;;;;;6267095;22;20074;-81
2022/01/23 01:45:41;;;;;;;21.67;11.52;;;5.70;99.90;;;;;;6238810;22;20015;-81
2022/01/23 01:48:07;;;;;;;21.45;11.20;;;5.70;99.90;;;;;;6264424;22;20090;-81
2022/01/23 01:50:34;;;;;;;24.87;11.93;;;5.70;99.90;;;;;;6239676;22;20117;-81
2022/01/23 01:53:00;;;;;;;18.23;11.07;;;5.70;99.90;;;;;;6240436;22;20030;-81
2022/01/23 01:55:31;;;;;;;27.77;11.47;;;5.80;99.90;;;;;;6266141;22;20097;-81
2022/01/23 01:58:02;;;;;;;22.07;12.57;;;5.70;99.90;;;;;;6265788;22;20022;-81
2022/01/23 02:08:27;;;;;;;21.53;12.30;;;5.70;99.90;;;;;;6264919;22;20024;-81
2022/01/23 02:11:01;;;;;;;20.13;11.20;;;5.70;99.90;;;;;;6237361;22;20259;-82
2022/01/23 02:13:35;;;;;;;18.45;11.70;;;5.70;99.90;;;;;;6260292;22;20491;-82
2022/01/23 02:16:35;;;;;;;22.70;12.20;;;5.70;99.90;;;;;;6235366;22;20019;-81
2022/01/23 02:56:53;;;;;;;26.13;13.33;;;5.70;99.90;;;;;;6257660;22;20263;-81
2022/01/23 02:59:28;;;;;;;28.33;14.25;;;5.70;99.90;;;;;;6208284;22;20047;-81
2022/01/23 03:02:04;;;;;;;25.50;12.98;;;5.70;99.90;;;;;;6230879;22;20016;-81
2022/01/23 03:04:33;;;;;;;24.20;13.80;;;5.70;99.90;;;;;;6210655;22;20027;-82
2022/01/23 03:07:19;;;;;;;22.33;13.87;;;5.70;99.90;;;;;;6233786;22;20012;-81
2022/01/23 03:32:13;;;;;;;31.93;15.97;;;5.70;99.90;;;;;;6260301;22;20624;-81
2022/01/23 03:34:02;;;;;;;34.17;16.70;;;5.70;99.90;;;;;;6249081;22;20015;-81
2022/01/23 03:36:30;;;;;;;27.75;15.43;;;5.70;99.90;;;;;;6234617;22;20526;-81
2022/01/23 03:38:56;;;;;;;29.10;16.70;;;5.70;99.90;;;;;;6233963;22;20103;-81
2022/01/23 03:41:22;;;;;;;25.13;15.27;;;5.70;99.90;;;;;;6234697;22;20120;-81
2022/01/23 03:43:51;;;;;;;29.33;15.97;;;5.70;99.90;;;;;;6259915;22;20026;-82
2022/01/23 03:49:35;;;;;;;42.40;18.83;;;5.70;99.90;;;;;;6259712;22;20024;-82
2022/01/23 03:51:54;;;;;;;37.75;17.58;;;5.70;99.90;;;;;;6260524;22;20024;-81
2022/01/23 03:54:21;;;;;;;39.37;18.70;;;5.70;99.90;;;;;;6265128;22;20015;-81
2022/01/23 03:56:47;;;;;;;42.67;19.73;;;5.70;99.90;;;;;;6239622;22;20015;-81
2022/01/23 03:59:13;;;;;;;37.37;18.07;;;5.70;99.90;;;;;;6264977;22;20026;-82
2022/01/23 04:01:39;;;;;;;35.73;17.90;;;5.70;99.90;;;;;;6264551;22;20020;-81
2022/01/23 04:04:14;;;;;;;37.07;18.87;;;5.70;99.90;;;;;;6239835;22;20022;-82
2022/01/23 04:06:39;;;;;;;34.60;17.73;;;5.70;99.90;;;;;;6220859;22;20016;-81
2022/01/23 04:09:05;;;;;;;39.70;18.40;;;5.60;99.90;;;;;;6269952;22;20352;-81
2022/01/23 04:11:31;;;;;;;42.50;18.27;;;5.60;99.90;;;;;;6243228;22;20361;-81
2022/01/23 04:14:04;;;;;;;30.00;15.47;;;5.70;99.90;;;;;;6242877;22;20110;-81
2022/01/23 04:32:59;;;;;;;33.03;17.63;;;5.60;99.90;;;;;;6270257;22;20020;-81
2022/01/23 04:47:12;;;;;;;26.30;14.20;;;5.60;99.90;;;;;;6246071;22;20302;-81
2022/01/23 05:00:23;;;;;;;47.57;19.67;;;5.60;99.90;;;;;;6249851;22;20086;-81
2022/01/23 05:05:36;;;;;;;31.57;16.67;;;5.50;99.90;;;;;;6273981;22;20098;-81
2022/01/23 05:08:05;;;;;;;37.42;17.73;;;5.60;99.90;;;;;;6247434;22;20546;-81
2022/01/23 05:10:32;;;;;;;36.97;17.52;;;5.60;99.90;;;;;;6224712;22;20011;-81
2022/01/23 05:13:02;;;;;;;31.73;16.93;;;5.60;99.90;;;;;;6275114;22;20019;-81
2022/01/23 05:15:28;;;;;;;35.17;18.00;;;5.60;99.90;;;;;;6247398;22;20062;-81
2022/01/23 05:17:54;;;;;;;31.33;16.37;;;5.60;99.90;;;;;;6273359;22;20022;-81
2022/01/23 05:20:24;;;;;;;32.63;16.60;;;5.70;99.90;;;;;;6221660;22;20451;-81
2022/01/23 05:22:53;;;;;;;32.03;16.83;;;5.60;99.90;;;;;;6274089;22;20011;-81
2022/01/23 05:25:23;;;;;;;32.20;17.40;;;5.60;99.90;;;;;;6249187;22;20405;-81
2022/01/23 05:27:53;;;;;;;31.77;16.83;;;5.60;99.90;;;;;;6247463;22;20293;-81
2022/01/23 05:30:23;;;;;;;33.55;17.02;;;5.60;99.90;;;;;;6272621;22;20019;-81
2022/01/23 05:32:52;;;;;;;38.20;18.77;;;5.60;99.90;;;;;;6272665;22;20407;-81
2022/01/23 05:35:20;;;;;;;40.63;18.43;;;5.60;99.90;;;;;;6247888;22;20023;-82
2022/01/23 05:37:49;;;;;;;35.15;18.25;;;5.60;99.90;;;;;;6248497;22;20534;-81
2022/01/23 05:40:17;;;;;;;36.53;18.07;;;5.60;99.90;;;;;;6223059;22;20061;-81
2022/01/23 05:42:44;;;;;;;39.63;18.93;;;5.60;99.90;;;;;;6247255;22;20361;-81
2022/01/23 05:45:10;;;;;;;35.92;18.15;;;5.50;99.90;;;;;;6248170;22;20098;-82
2022/01/23 05:47:36;;;;;;;35.50;17.73;;;5.50;99.90;;;;;;6223979;22;20439;-81
2022/01/23 05:50:04;;;;;;;32.93;17.47;;;5.50;99.90;;;;;;6221613;22;20022;-81
2022/01/23 05:52:31;;;;;;;33.73;17.53;;;5.60;99.90;;;;;;6247663;22;20019;-81
2022/01/23 05:55:00;;;;;;;35.73;17.43;;;5.60;99.90;;;;;;6223143;22;20019;-81
2022/01/23 05:57:26;;;;;;;35.92;17.15;;;5.60;99.90;;;;;;6271365;22;20016;-81
2022/01/23 05:59:52;;;;;;;31.87;16.23;;;5.60;99.90;;;;;;6246963;22;20094;-81
2022/01/23 06:02:18;;;;;;;33.43;16.77;;;5.60;99.90;;;;;;6244726;22;20023;-81
2022/01/23 06:04:44;;;;;;;33.03;16.83;;;5.60;99.90;;;;;;6247637;22;20030;-81
2022/01/23 06:07:10;;;;;;;32.50;17.37;;;5.60;99.90;;;;;;6223760;22;20101;-81
2022/01/23 06:09:37;;;;;;;39.03;18.30;;;5.60;99.90;;;;;;6249402;22;20051;-82
2022/01/23 06:12:04;;;;;;;44.25;19.17;;;5.60;99.90;;;;;;6225094;22;20102;-81
2022/01/23 06:14:30;;;;;;;33.17;16.67;;;5.60;99.90;;;;;;6248435;22;20021;-81
2022/01/23 06:16:56;;;;;;;24.15;14.95;;;5.60;99.90;;;;;;6275398;22;20515;-81
2022/01/23 06:19:22;;;;;;;42.17;18.33;;;5.50;99.90;;;;;;6274610;22;20621;-80
2022/01/23 06:21:47;;;;;;;41.00;18.60;;;5.60;99.90;;;;;;6249779;22;20019;-81
2022/01/23 06:24:25;;;;;;;33.13;17.30;;;5.60;99.90;;;;;;6224947;22;20027;-81
2022/01/23 06:26:54;;;;;;;36.50;18.23;;;5.60;99.90;;;;;;6226747;22;20017;-81
2022/01/23 06:29:21;;;;;;;32.20;16.23;;;5.60;99.90;;;;;;6273911;22;20061;-82
2022/01/23 06:31:47;;;;;;;32.93;17.43;;;5.70;99.90;;;;;;6273164;22;20396;-81
2022/01/23 06:34:14;;;;;;;33.25;15.98;;;5.60;99.90;;;;;;6249767;22;20069;-81
2022/01/23 06:36:41;;;;;;;30.63;16.42;;;5.60;99.90;;;;;;6273434;22;20042;-81
2022/01/23 06:39:09;;;;;;;32.57;16.77;;;5.60;99.90;;;;;;6247642;22;20019;-81
2022/01/23 06:41:36;;;;;;;38.20;17.10;;;5.60;99.90;;;;;;6272218;22;20022;-81
2022/01/23 06:44:03;;;;;;;29.57;14.77;;;5.60;99.90;;;;;;6245759;22;20015;-81
2022/01/23 06:46:31;;;;;;;31.08;15.18;;;5.60;99.90;;;;;;6222692;22;20015;-82
2022/01/23 06:48:57;;;;;;;28.90;15.63;;;5.60;99.90;;;;;;6247295;22;20458;-81
2022/01/23 06:51:24;;;;;;;32.70;15.70;;;5.60;99.90;;;;;;6272376;22;20027;-81
2022/01/23 06:53:49;;;;;;;29.45;15.25;;;5.60;99.90;;;;;;6247324;22;20019;-81
2022/01/23 06:56:15;;;;;;;39.87;17.07;;;5.60;99.90;;;;;;6247752;22;20393;-81
2022/01/23 06:58:41;;;;;;;32.97;15.20;;;5.60;99.90;;;;;;6270380;22;20677;-81
2022/01/23 07:01:07;;;;;;;29.93;15.30;;;5.60;99.90;;;;;;6245169;22;20019;-81
2022/01/23 07:03:37;;;;;;;33.70;15.27;;;5.60;99.90;;;;;;6270885;22;20106;-81
2022/01/23 07:06:22;;;;;;;32.20;15.18;;;5.60;99.90;;;;;;6244918;22;20038;-81
2022/01/23 07:08:47;;;;;;;32.13;14.83;;;5.60;99.90;;;;;;6244519;22;20502;-81
2022/01/23 07:11:13;;;;;;;38.87;15.60;;;5.60;99.90;;;;;;6244500;22;20023;-81
2022/01/23 07:13:39;;;;;;;40.37;15.60;;;5.60;99.90;;;;;;6272080;22;20467;-81
2022/01/23 07:16:06;;;;;;;35.20;15.10;;;5.60;99.90;;;;;;6220491;22;20080;-81
2022/01/23 07:18:35;;;;;;;34.63;14.68;;;5.50;99.90;;;;;;6270693;22;20076;-81
2022/01/23 07:21:01;;;;;;;31.55;14.70;;;5.50;99.90;;;;;;6220937;22;20026;-81
2022/01/23 07:23:30;;;;;;;44.00;15.90;;;5.50;99.90;;;;;;6246429;22;20019;-81
2022/01/23 07:25:56;;;;;;;38.37;15.97;;;5.60;99.90;;;;;;6245479;22;20054;-80
2022/01/23 07:28:31;;;;;;;36.23;15.53;;;5.50;99.90;;;;;;6249764;22;20065;-81
2022/01/23 07:31:04;;;;;;;36.27;15.33;;;5.50;99.90;;;;;;6249425;22;20019;-81
2022/01/23 07:33:32;;;;;;;33.17;15.02;;;5.50;99.90;;;;;;6276247;22;20446;-81
2022/01/23 07:35:58;;;;;;;29.10;13.83;;;5.50;99.90;;;;;;6276479;22;20083;-81
2022/01/23 07:38:23;;;;;;;27.33;14.37;;;5.50;99.90;;;;;;6250298;22;20464;-81
2022/01/23 07:40:49;;;;;;;36.00;15.10;;;5.50;99.90;;;;;;6250301;22;20386;-81
2022/01/23 07:43:15;;;;;;;37.00;15.00;;;5.50;99.90;;;;;;6276138;22;20025;-81
2022/01/23 07:45:43;;;;;;;27.92;13.93;;;5.50;99.90;;;;;;6276118;22;20493;-81
2022/01/23 07:48:09;;;;;;;32.00;14.57;;;5.50;99.90;;;;;;6276259;22;20455;-81
2022/01/23 07:50:36;;;;;;;31.57;14.77;;;5.60;99.90;;;;;;6275362;22;20012;-81
2022/01/23 07:53:02;;;;;;;31.30;14.40;;;5.60;99.90;;;;;;6225130;22;20316;-81
2022/01/23 07:55:31;;;;;;;34.45;14.55;;;5.50;99.90;;;;;;6250636;22;20023;-81
2022/01/23 07:58:02;;;;;;;32.63;15.27;;;5.50;99.90;;;;;;6249964;22;20023;-81
2022/01/23 08:00:29;;;;;;;30.70;14.63;;;5.50;99.90;;;;;;6274385;22;20019;-81
2022/01/23 08:02:55;;;;;;;36.33;14.50;;;5.50;99.90;;;;;;6248335;22;20023;-82
2022/01/23 08:05:20;;;;;;;34.87;14.70;;;5.50;99.90;;;;;;6272426;22;20099;-81
2022/01/23 08:07:46;;;;;;;37.10;15.80;;;5.50;99.90;;;;;;6222668;22;20027;-81
2022/01/23 08:10:14;;;;;;;33.05;15.35;;;5.50;99.90;;;;;;6249405;22;20084;-81
2022/01/23 08:12:42;;;;;;;41.83;16.97;;;5.60;99.90;;;;;;6249134;22;20087;-81
2022/01/23 08:15:09;;;;;;;34.33;15.10;;;5.60;99.90;;;;;;6249949;22;20015;-81
2022/01/23 08:17:35;;;;;;;32.77;15.20;;;5.60;99.90;;;;;;6275911;22;20086;-81
2022/01/23 08:20:02;;;;;;;36.95;15.75;;;5.60;99.90;;;;;;6248986;22;20112;-81
2022/01/23 08:22:30;;;;;;;29.70;14.57;;;5.60;99.90;;;;;;6249170;22;20086;-81
2022/01/23 08:25:02;;;;;;;32.05;15.65;;;5.60;99.90;;;;;;6274152;22;20599;-81
2022/01/23 08:27:31;;;;;;;40.72;16.75;;;5.60;99.90;;;;;;6223516;22;20066;-81
2022/01/23 08:30:01;;;;;;;32.67;15.60;;;5.60;99.90;;;;;;6249206;22;20512;-81
2022/01/23 08:32:27;;;;;;;34.38;15.70;;;5.70;99.90;;;;;;6276276;22;20019;-81
2022/01/23 08:34:56;;;;;;;29.33;14.23;;;5.70;99.90;;;;;;6250090;22;20012;-81
2022/01/23 08:37:22;;;;;;;29.13;14.55;;;5.70;99.90;;;;;;6224526;22;20344;-80
2022/01/23 08:39:48;;;;;;;29.13;14.10;;;5.70;99.90;;;;;;6276010;22;20023;-80
2022/01/23 08:42:15;;;;;;;25.13;13.77;;;5.70;99.90;;;;;;6224803;22;20015;-81
2022/01/23 08:44:45;;;;;;;29.52;14.57;;;5.70;99.90;;;;;;6276002;22;20104;-80
2022/01/23 08:47:11;;;;;;;30.35;14.48;;;5.70;99.90;;;;;;6224369;22;20026;-81
2022/01/23 08:49:44;;;;;;;27.83;13.65;;;5.70;99.90;;;;;;6273474;22;20015;-81
2022/01/23 08:52:10;;;;;;;26.83;13.10;;;5.70;99.90;;;;;;6224306;22;20076;-81
2022/01/23 08:54:36;;;;;;;23.20;13.95;;;5.70;99.90;;;;;;6249085;22;20076;-81
2022/01/23 08:57:02;;;;;;;26.87;14.50;;;5.80;99.90;;;;;;6272259;22;20467;-81
2022/01/23 08:59:31;;;;;;;26.42;14.15;;;5.80;99.90;;;;;;6249787;22;20019;-81
2022/01/23 09:01:56;;;;;;;23.90;12.98;;;5.80;99.90;;;;;;6243298;22;20020;-81
2022/01/23 09:04:22;;;;;;;26.65;14.20;;;5.80;99.90;;;;;;6219597;22;20031;-81
2022/01/23 09:06:48;;;;;;;25.67;12.90;;;5.80;99.90;;;;;;6244004;22;20023;-81
2022/01/23 09:09:18;;;;;;;24.45;13.07;;;5.90;99.90;;;;;;6269707;22;20019;-81
2022/01/23 09:14:50;;;;;;;24.77;13.30;;;5.90;99.90;;;;;;6234836;22;20106;-81
2022/01/23 09:17:16;;;;;;;26.88;13.52;;;5.90;99.90;;;;;;6243007;22;20470;-81
2022/01/23 09:19:45;;;;;;;25.42;14.30;;;5.90;99.90;;;;;;6242831;22;20047;-81
2022/01/23 09:22:11;;;;;;;28.33;14.53;;;5.90;99.90;;;;;;6218351;22;20016;-81
2022/01/23 09:24:37;;;;;;;24.40;14.18;;;6.00;99.90;;;;;;6243404;22;20015;-82
2022/01/23 09:27:06;;;;;;;21.87;12.90;;;6.00;99.90;;;;;;6217848;22;20455;-81
2022/01/23 09:29:36;;;;;;;25.08;13.32;;;6.00;99.90;;;;;;6244293;22;20027;-81
2022/01/23 09:32:10;;;;;;;22.30;12.45;;;6.00;99.90;;;;;;6267023;22;20467;-81
2022/01/23 09:34:36;;;;;;;15.98;10.90;;;6.10;99.90;;;;;;6268257;22;20467;-81
2022/01/23 09:37:08;;;;;;;20.23;10.85;;;6.10;99.90;;;;;;6268116;22;20042;-82
2022/01/23 09:39:34;;;;;;;21.27;11.73;;;6.10;99.90;;;;;;6268607;22;20031;-81
2022/01/23 09:42:13;;;;;;;18.83;10.52;;;6.10;99.90;;;;;;6242969;22;20448;-81
2022/01/23 09:44:45;;;;;;;14.73;9.20;;;6.20;99.90;;;;;;6241385;22;20101;-81
2022/01/23 09:47:15;;;;;;;15.45;9.52;;;6.20;99.90;;;;;;6241735;22;20388;-81
2022/01/23 09:49:44;;;;;;;14.98;9.90;;;6.30;99.90;;;;;;6239549;22;20344;-82
2022/01/23 09:52:12;;;;;;;16.25;9.68;;;6.30;99.90;;;;;;6240656;22;20517;-82
2022/01/23 09:54:41;;;;;;;15.80;9.65;;;6.30;99.90;;;;;;6266403;22;20474;-81
2022/01/23 09:57:09;;;;;;;12.77;9.07;;;6.30;99.90;;;;;;6238209;22;20015;-81
2022/01/23 09:59:35;;;;;;;15.63;9.52;;;6.30;99.90;;;;;;6265044;22;20421;-81
2022/01/23 10:02:05;;;;;;;14.20;8.73;;;6.40;99.90;;;;;;6264322;22;20016;-82
2022/01/23 10:04:31;;;;;;;14.35;9.07;;;6.40;99.90;;;;;;6240240;22;20018;-81
2022/01/23 10:07:03;;;;;;;12.98;8.95;;;6.50;99.90;;;;;;6240899;22;20472;-81
2022/01/23 10:09:32;;;;;;;10.43;7.55;;;6.50;99.90;;;;;;6240072;22;20423;-81
2022/01/23 10:12:02;;;;;;;13.20;8.38;;;6.50;99.90;;;;;;6265363;22;20016;-81
2022/01/23 10:14:31;;;;;;;11.70;8.05;;;6.50;99.90;;;;;;6266152;22;20118;-81
2022/01/23 10:17:00;;;;;;;8.23;5.55;;;6.50;99.90;;;;;;6267620;22;20118;-81
2022/01/23 10:19:25;;;;;;;9.18;5.43;;;6.60;99.90;;;;;;6241570;22;20020;-82
2022/01/23 10:21:53;;;;;;;11.75;7.25;;;6.60;99.90;;;;;;6266790;22;20018;-81
2022/01/23 10:24:18;;;;;;;12.77;7.55;;;6.60;99.90;;;;;;6267694;22;20435;-82
2022/01/23 10:26:48;;;;;;;9.98;7.28;;;6.60;99.90;;;;;;6241753;22;20016;-81
2022/01/23 10:29:21;;;;;;;10.32;7.15;;;6.70;99.90;;;;;;6241518;22;20019;-82
2022/01/23 10:32:07;;;;;;;10.45;7.68;;;6.70;99.90;;;;;;6240795;22;20333;-81
2022/01/23 10:34:46;;;;;;;10.98;6.45;;;6.70;99.90;;;;;;6240568;22;20030;-82
2022/01/23 10:37:23;;;;;;;10.98;6.53;;;6.70;99.90;;;;;;6216038;22;20019;-82
2022/01/23 10:39:49;;;;;;;10.68;6.60;;;6.70;99.90;;;;;;6240523;22;20020;-82
2022/01/23 10:47:57;;;;;;;11.07;7.10;;;6.80;99.90;;;;;;6264318;22;20049;-82
2022/01/23 10:50:26;;;;;;;11.93;7.53;;;6.80;99.90;;;;;;6240510;22;20027;-81
2022/01/23 10:52:58;;;;;;;10.95;6.68;;;6.90;99.90;;;;;;6239643;22;20019;-81
2022/01/23 10:55:32;;;;;;;7.18;3.92;;;6.90;99.90;;;;;;6239546;22;20157;-81
2022/01/23 10:58:03;;;;;;;6.80;4.60;;;6.90;99.90;;;;;;6240230;22;20016;-82
2022/01/23 11:00:39;;;;;;;7.43;4.60;;;6.90;99.90;;;;;;6266432;22;20521;-82
2022/01/23 11:03:23;;;;;;;7.47;5.25;;;7.00;99.90;;;;;;6246324;22;20463;-81
2022/01/23 11:05:51;;;;;;;7.55;4.65;;;7.00;99.90;;;;;;6272788;22;20097;-82
2022/01/23 11:08:31;;;;;;;7.00;4.30;;;7.10;99.90;;;;;;6271842;22;20019;-81
2022/01/23 11:11:07;;;;;;;7.37;5.10;;;7.20;99.90;;;;;;6272326;22;20015;-81
2022/01/23 11:19:35;;;;;;;;;;;7.30;99.90;;;;;;6273241;22;20216;-83
2022/01/23 11:22:04;;;;;;;7.93;4.97;;;7.30;99.90;;;;;;6249325;22;20319;-82
2022/01/23 11:24:39;;;;;;;6.05;3.83;;;7.30;99.90;;;;;;6221682;22;20023;-82
2022/01/23 11:27:08;;;;;;;2.45;1.60;;;7.30;99.90;;;;;;6247464;22;20019;-82
2022/01/23 11:29:34;;;;;;;2.97;1.80;;;7.30;99.90;;;;;;6222637;22;20072;-82
2022/01/23 11:32:00;;;;;;;3.42;1.60;;;7.30;99.90;;;;;;6272909;22;20490;-82
2022/01/23 11:34:32;;;;;;;1.88;0.75;;;7.30;99.90;;;;;;6271864;22;20473;-82
2022/01/23 11:37:01;;;;;;;1.30;0.80;;;7.20;99.90;;;;;;6272715;22;20015;-82
2022/01/23 11:40:05;;;;;;;3.33;1.83;;;7.20;99.90;;;;;;6272729;22;20011;-82
2022/01/23 11:56:40;;;;;;;5.15;2.63;;;7.20;99.90;;;;;;6270987;22;20081;-81
2022/01/23 11:59:27;;;;;;;3.33;1.90;;;7.20;99.90;;;;;;6245053;22;20456;-81
2022/01/23 12:02:11;;;;;;;3.97;2.35;;;7.20;99.90;;;;;;6238129;22;20371;-82
2022/01/23 12:05:16;;;;;;;5.53;3.42;;;7.20;99.90;;;;;;6264949;22;20068;-81
2022/01/23 12:07:45;;;;;;;5.97;3.35;;;7.30;99.90;;;;;;6239037;22;20382;-81
2022/01/23 12:10:24;;;;;;;5.40;3.05;;;7.30;99.90;;;;;;6265006;22;20052;-81
2022/01/23 12:13:54;;;;;;;5.18;3.30;;;7.30;99.90;;;;;;6241561;22;20020;-81
2022/01/23 12:16:22;;;;;;;4.30;2.97;;;7.40;99.90;;;;;;6265548;22;20398;-82
2022/01/23 12:19:18;;;;;;;5.25;3.17;;;7.40;99.90;;;;;;6241865;22;20030;-81
2022/01/23 12:21:45;;;;;;;5.38;3.10;;;7.30;99.90;;;;;;6235553;22;20503;-82
2022/01/23 12:24:14;;;;;;;5.65;3.25;;;7.30;99.90;;;;;;6241464;22;20103;-82
2022/01/23 12:26:44;;;;;;;6.90;4.55;;;7.30;99.90;;;;;;6242448;22;20318;-82
2022/01/23 12:29:23;;;;;;;7.80;3.80;;;7.30;99.90;;;;;;6236528;22;20058;-81
2022/01/23 12:31:50;;;;;;;5.03;3.50;;;7.30;99.90;;;;;;6238119;22;20042;-82
2022/01/23 12:34:16;;;;;;;4.97;3.33;;;7.30;99.90;;;;;;6214457;22;20153;-81
2022/01/23 12:36:54;;;;;;;4.30;3.08;;;7.30;99.90;;;;;;6215252;22;20027;-82
2022/01/23 12:39:20;;;;;;;4.90;3.10;;;7.30;99.90;;;;;;6266476;22;20530;-81
2022/01/23 12:41:52;;;;;;;2.97;1.80;;;7.30;99.90;;;;;;6216746;22;20015;-82
2022/01/23 12:44:24;;;;;;;2.38;1.27;;;7.30;99.90;;;;;;6265940;22;20016;-81
2022/01/23 12:46:51;;;;;;;1.45;0.88;;;7.40;99.90;;;;;;6266794;22;20027;-81
2022/01/23 12:49:34;;;;;;;1.85;0.88;;;7.30;99.90;;;;;;6265619;22;20038;-81
2022/01/23 12:52:06;;;;;;;2.70;0.90;;;7.30;99.90;;;;;;6266517;22;20023;-82
2022/01/23 12:54:35;;;;;;;2.53;1.20;;;7.30;99.90;;;;;;6265243;22;20102;-82
2022/01/23 12:57:15;;;;;;;2.45;0.90;;;7.30;99.90;;;;;;6263214;22;20027;-81
2022/01/23 12:59:43;;;;;;;2.50;0.90;;;7.30;99.90;;;;;;6263650;22;20103;-82
2022/01/23 13:02:18;;;;;;;2.75;1.35;;;7.30;99.90;;;;;;6238882;22;20674;-81
2022/01/23 13:04:50;;;;;;;5.68;1.67;;;7.30;99.90;;;;;;6210909;22;20344;-81
2022/01/23 13:08:18;;;;;;;2.90;1.10;;;7.30;99.90;;;;;;6237089;22;20439;-82
2022/01/23 13:12:51;;;;;;;2.63;1.52;;;7.30;99.90;;;;;;6261847;22;20020;-82
2022/01/23 13:15:45;;;;;;;2.05;1.38;;;7.30;99.90;;;;;;6212313;22;20024;-78
2022/01/23 13:34:29;;;;;;;3.80;2.60;;;7.30;99.90;;;;;;6263485;22;20026;-82
2022/01/23 13:37:05;;;;;;;2.55;1.98;;;7.20;99.90;;;;;;6237511;22;20122;-83
2022/01/23 13:39:52;;;;;;;2.53;1.80;;;7.20;99.90;;;;;;6261755;22;20024;-82
2022/01/23 14:04:34;;;;;;;2.25;1.27;;;7.20;99.90;;;;;;6236601;22;20268;-83
2022/01/23 14:07:00;;;;;;;3.00;1.38;;;7.20;99.90;;;;;;6235937;22;20169;-83
2022/01/23 14:09:27;;;;;;;3.10;1.40;;;7.20;99.90;;;;;;6259053;22;20050;-82
2022/01/23 14:11:56;;;;;;;6.95;1.77;;;7.20;99.90;;;;;;6234448;22;20328;-82
2022/01/23 14:14:26;;;;;;;3.20;1.98;;;7.20;99.90;;;;;;6234770;22;20053;-82
2022/01/23 14:16:54;;;;;;;4.35;2.47;;;7.20;99.90;;;;;;6259802;22;20195;-83
2022/01/23 14:19:29;;;;;;;4.57;2.17;;;7.20;99.90;;;;;;6259835;22;20016;-83
2022/01/23 14:22:00;;;;;;;3.88;2.10;;;7.20;99.90;;;;;;6259582;22;20261;-83
2022/01/23 14:24:32;;;;;;;2.92;1.60;;;7.20;99.90;;;;;;6260170;22;20015;-82
2022/01/23 14:27:13;;;;;;;3.08;1.88;;;7.20;99.90;;;;;;6260553;22;20530;-82
2022/01/23 14:29:50;;;;;;;3.00;1.35;;;7.20;99.90;;;;;;6260881;22;20448;-83
2022/01/23 14:32:29;;;;;;;2.72;1.30;;;7.20;99.90;;;;;;6261501;22;20016;-83
2022/01/23 14:35:41;;;;;;;4.53;1.80;;;7.10;99.90;;;;;;6237187;22;20069;-83
2022/01/23 14:38:10;;;;;;;2.70;1.80;;;7.10;99.90;;;;;;6204475;23;20023;-83
2022/01/23 14:40:37;;;;;;;4.30;2.10;;;7.10;99.90;;;;;;6251212;22;20074;-82
2022/01/23 14:43:12;;;;;;;3.70;1.60;;;7.20;99.90;;;;;;6213099;22;20066;-83
2022/01/23 14:45:46;;;;;;;4.13;1.83;;;7.20;99.90;;;;;;6262369;22;20105;-83
2022/01/23 14:48:14;;;;;;;2.67;1.85;;;7.10;99.90;;;;;;6236628;22;20047;-83
2022/01/23 14:50:45;;;;;;;4.30;2.60;;;7.00;99.90;;;;;;6260148;22;20051;-83
2022/01/23 14:53:14;;;;;;;3.70;2.20;;;7.00;99.90;;;;;;6234678;22;20217;-82
2022/01/23 14:55:50;;;;;;;4.28;2.13;;;7.10;99.90;;;;;;6259349;22;20016;-82
2022/01/23 14:58:21;;;;;;;4.82;3.10;;;7.10;99.90;;;;;;6260812;22;20506;-82
2022/01/23 15:00:57;;;;;;;3.67;1.98;;;7.10;99.90;;;;;;6258805;22;20026;-82
2022/01/23 15:03:30;;;;;;;3.00;2.00;;;7.10;99.90;;;;;;6207538;22;20085;-82
2022/01/23 15:05:56;;;;;;;4.15;2.13;;;7.10;99.90;;;;;;6231470;22;20019;-82
2022/01/23 15:08:25;;;;;;;4.53;2.33;;;7.10;99.90;;;;;;6257142;22;20038;-82
2022/01/23 15:10:54;;;;;;;4.28;2.78;;;7.00;99.90;;;;;;6230449;22;20020;-82
2022/01/23 15:13:22;;;;;;;5.23;2.33;;;7.10;99.90;;;;;;6231616;22;20020;-82
2022/01/23 15:15:49;;;;;;;5.20;3.00;;;7.00;99.90;;;;;;6205042;22;20628;-82
2022/01/23 15:18:19;;;;;;;4.93;2.70;;;7.00;99.90;;;;;;6256632;22;20012;-82
2022/01/23 15:20:45;;;;;;;4.88;2.50;;;7.00;99.90;;;;;;6233314;22;20027;-82
2022/01/23 15:23:12;;;;;;;4.13;2.85;;;7.00;99.90;;;;;;6209710;22;20055;-82
2022/01/23 15:25:38;;;;;;;4.80;2.67;;;7.00;99.90;;;;;;6257380;22;20403;-82
2022/01/23 15:28:05;;;;;;;5.82;2.90;;;7.00;99.90;;;;;;6259443;22;20065;-82
2022/01/23 15:30:31;;;;;;;4.55;2.88;;;7.00;99.90;;;;;;6260140;22;20023;-82
2022/01/23 15:32:58;;;;;;;5.22;2.05;;;7.00;99.90;;;;;;6235304;22;20467;-82
2022/01/23 15:35:25;;;;;;;4.40;2.55;;;7.00;99.90;;;;;;6234207;22;20020;-82
2022/01/23 15:37:52;;;;;;;3.70;2.42;;;7.00;99.90;;;;;;6260542;22;20099;-82
2022/01/23 15:40:21;;;;;;;4.03;2.03;;;6.90;99.90;;;;;;6234489;22;20015;-82
2022/01/23 15:42:50;;;;;;;3.88;2.45;;;6.90;99.90;;;;;;6234424;22;20047;-82
2022/01/23 15:45:17;;;;;;;4.20;2.50;;;6.90;99.90;;;;;;6260704;22;20012;-82
2022/01/23 15:47:43;;;;;;;4.35;2.58;;;6.90;99.90;;;;;;6236325;22;20015;-82
2022/01/23 15:50:12;;;;;;;3.53;2.22;;;6.90;99.90;;;;;;6236852;22;20198;-82
2022/01/23 15:52:38;;;;;;;3.53;2.60;;;6.90;99.90;;;;;;6238728;22;20383;-83
2022/01/23 15:55:11;;;;;;;3.75;2.33;;;6.90;99.90;;;;;;6236894;22;20257;-82
2022/01/23 15:57:38;;;;;;;4.40;2.58;;;6.90;99.90;;;;;;6237000;22;20015;-82
2022/01/23 16:00:06;;;;;;;4.65;3.20;;;6.90;99.90;;;;;;6212455;22;20027;-82
2022/01/23 16:02:32;;;;;;;4.15;2.30;;;6.80;99.90;;;;;;6237116;22;20015;-82
2022/01/23 16:04:59;;;;;;;4.30;2.33;;;6.90;99.90;;;;;;6237171;22;20399;-82
2022/01/23 16:07:26;;;;;;;7.28;4.25;;;6.90;99.90;;;;;;6236351;22;20600;-82
2022/01/23 16:09:52;;;;;;;5.00;3.30;;;6.80;99.90;;;;;;6236269;22;20022;-83
2022/01/23 16:12:18;;;;;;;4.55;2.70;;;6.80;99.90;;;;;;6212167;22;20019;-82
2022/01/23 16:14:44;;;;;;;5.20;3.22;;;6.80;99.90;;;;;;6208427;22;20023;-82
2022/01/23 16:17:10;;;;;;;4.82;3.03;;;6.80;99.90;;;;;;6183528;22;20031;-82
2022/01/23 16:19:36;;;;;;;4.03;3.00;;;6.80;99.90;;;;;;6234526;22;20016;-82
2022/01/23 16:22:03;;;;;;;6.03;3.17;;;6.80;99.90;;;;;;6260673;22;20522;-82
2022/01/23 16:24:29;;;;;;;4.75;3.30;;;6.80;99.90;;;;;;6235022;22;20054;-82
2022/01/23 16:26:56;;;;;;;4.97;2.78;;;6.80;99.90;;;;;;6233760;22;20019;-83
2022/01/23 16:29:24;;;;;;;4.20;2.50;;;6.80;99.90;;;;;;6260368;22;20365;-82
2022/01/23 16:31:53;;;;;;;4.50;2.40;;;6.70;99.90;;;;;;6259689;22;20020;-82
2022/01/23 16:34:19;;;;;;;6.50;5.00;;;6.70;99.90;;;;;;6234445;22;20015;-82